createdAt,value
2019-01-03T00:00:10.996Z,9.33
2019-01-03T00:03:00.864Z,9.57
2019-01-03T00:05:54.634Z,5.43
2019-01-03T00:08:45.355Z,8.47
2019-01-03T00:11:36.700Z,6.70
2019-01-03T00:14:45.787Z,6.83
2019-01-03T00:17:35.307Z,10.63
2019-01-03T00:20:27.275Z,10.10
2019-01-03T00:23:18.041Z,8.20
2019-01-03T00:26:07.585Z,8.47
2019-01-03T00:28:58.377Z,10.03
2019-01-03T00:32:01.541Z,11.07
2019-01-03T00:34:51.075Z,4.70
2019-01-03T00:37:50.991Z,9.70
2019-01-03T00:40:40.600Z,8.03
2019-01-03T00:43:28.771Z,5.80
2019-01-03T00:46:28.391Z,9.40
2019-01-03T00:49:31.486Z,3.67
2019-01-03T00:52:14.622Z,4.10
2019-01-03T00:55:05.344Z,7.10
2019-01-03T00:57:55.027Z,7.33
2019-01-03T01:00:45.772Z,9.57
2019-01-03T01:03:39.592Z,6.33
2019-01-03T01:06:29.210Z,4.80
2019-01-03T01:09:29.670Z,9.73
2019-01-03T01:12:19.554Z,7.97
2019-01-03T01:15:09.354Z,7.07
2019-01-03T01:17:57.380Z,10.83
2019-01-03T01:20:50.237Z,6.27
2019-01-03T01:23:40.020Z,6.93
2019-01-03T01:26:29.657Z,4.97
2019-01-03T01:29:23.414Z,6.83
2019-01-03T01:32:13.963Z,3.10
2019-01-03T01:35:03.643Z,6.30
2019-01-03T01:37:53.280Z,4.23
2019-01-03T01:40:46.713Z,6.50
2019-01-03T01:43:43.564Z,6.80
2019-01-03T01:46:28.911Z,8.73
2019-01-03T01:49:18.921Z,8.80
2019-01-03T01:52:08.800Z,5.63
2019-01-03T01:55:05.846Z,7.77
2019-01-03T01:58:02.692Z,5.07
2019-01-03T02:00:56.464Z,7.93
2019-01-03T02:03:46.110Z,7.50
2019-01-03T02:06:42.874Z,7.73
2019-01-03T02:09:43.117Z,3.43
2019-01-03T02:12:32.740Z,4.70
2019-01-03T02:15:29.727Z,3.83
2019-01-03T02:18:20.445Z,9.00
2019-01-03T02:21:17.312Z,11.40
2019-01-03T02:24:14.045Z,5.87
2019-01-03T02:27:03.830Z,9.77
2019-01-03T02:29:37.729Z,2.63
2019-01-03T02:32:35.795Z,2.97
2019-01-03T02:35:38.687Z,3.77
2019-01-03T02:38:45.758Z,9.63
2019-01-03T02:41:39.594Z,4.20
2019-01-03T02:44:27.582Z,7.90
2019-01-03T02:47:22.895Z,3.03
2019-01-03T02:50:13.642Z,4.17
2019-01-03T02:53:22.976Z,4.80
2019-01-03T02:56:11.724Z,7.17
2019-01-03T02:59:02.576Z,7.17
2019-01-03T03:02:02.122Z,8.43
2019-01-03T03:04:51.777Z,5.27
2019-01-03T03:07:45.175Z,2.37
2019-01-03T03:10:35.940Z,6.80
2019-01-03T03:13:38.949Z,7.07
2019-01-03T03:16:29.672Z,5.00
2019-01-03T03:19:35.814Z,5.73
2019-01-03T03:22:32.300Z,7.63
2019-01-03T03:25:42.034Z,7.33
2019-01-03T03:28:40.816Z,6.80
2019-01-03T03:31:30.271Z,6.23
2019-01-03T03:34:19.945Z,6.23
2019-01-03T03:37:15.057Z,8.20
2019-01-03T03:40:13.110Z,9.70
2019-01-03T03:43:02.904Z,3.47
2019-01-03T03:46:05.014Z,7.67
2019-01-03T03:48:58.801Z,8.07
2019-01-03T03:51:50.709Z,6.93
2019-01-03T03:54:59.811Z,8.57
2019-01-03T03:57:53.595Z,2.20
2019-01-03T04:00:50.539Z,4.13
2019-01-03T04:03:50.074Z,3.03
2019-01-03T04:06:47.815Z,4.37
2019-01-03T04:09:29.866Z,11.50
2019-01-03T04:12:29.721Z,5.47
2019-01-03T04:15:23.231Z,9.37
2019-01-03T04:18:13.063Z,4.17
2019-01-03T04:21:02.685Z,4.17
2019-01-03T04:23:52.329Z,4.47
2019-01-03T04:26:40.404Z,4.53
2019-01-03T04:29:40.303Z,7.23
2019-01-03T04:32:29.903Z,3.63
2019-01-03T04:35:20.603Z,4.47
2019-01-03T04:38:23.700Z,4.50
2019-01-03T04:41:09.373Z,4.27
2019-01-03T04:43:55.982Z,3.70
2019-01-03T04:46:46.726Z,5.77
2019-01-03T04:49:48.429Z,5.30
2019-01-03T04:52:35.259Z,9.27
2019-01-03T04:55:26.361Z,6.83
2019-01-03T04:58:26.396Z,9.33
2019-01-03T05:01:52.731Z,10.80
2019-01-03T05:04:42.326Z,11.90
2019-01-03T05:07:29.037Z,11.90
2019-01-03T05:10:29.034Z,9.67
2019-01-03T05:13:19.435Z,12.53
2019-01-03T05:16:10.213Z,13.83
2019-01-03T05:19:13.376Z,14.73
2019-01-03T05:22:03.139Z,5.90
2019-01-03T05:24:48.197Z,10.03
2019-01-03T05:27:54.286Z,13.57
2019-01-03T05:30:38.388Z,8.23
2019-01-03T05:33:35.389Z,13.97
2019-01-03T05:36:38.349Z,8.60
2019-01-03T05:39:21.469Z,8.60
2019-01-03T05:42:12.221Z,15.57
2019-01-03T05:45:02.969Z,10.93
2019-01-03T05:48:06.193Z,8.50
2019-01-03T05:51:09.654Z,7.07
2019-01-03T05:54:10.735Z,13.10
2019-01-03T05:57:07.527Z,13.40
2019-01-03T05:59:50.300Z,7.00
2019-01-03T06:02:39.992Z,10.90
2019-01-03T06:05:29.641Z,16.60
2019-01-03T06:08:21.752Z,6.53
2019-01-03T06:11:02.533Z,9.20
2019-01-03T06:13:52.227Z,11.63
2019-01-03T06:16:58.414Z,13.37
2019-01-03T06:20:07.313Z,11.03
2019-01-03T06:23:01.059Z,15.90
2019-01-03T06:25:47.603Z,13.10
2019-01-03T06:28:37.225Z,12.27
2019-01-03T06:31:26.876Z,10.17
2019-01-03T06:34:16.584Z,17.00
2019-01-03T06:37:06.214Z,14.80
2019-01-03T06:39:56.952Z,9.57
2019-01-03T06:42:46.612Z,11.07
2019-01-03T06:45:36.476Z,14.47
2019-01-03T06:48:45.608Z,11.07
2019-01-03T06:51:48.710Z,13.13
2019-01-03T06:54:37.952Z,18.43
2019-01-03T06:57:27.573Z,10.73
2019-01-03T07:00:23.775Z,8.33
2019-01-03T07:03:13.349Z,9.10
2019-01-03T07:06:04.360Z,8.93
2019-01-03T07:08:53.344Z,8.97
2019-01-03T07:11:42.827Z,16.73
2019-01-03T07:14:39.982Z,12.57
2019-01-03T07:17:30.743Z,12.77
2019-01-03T07:20:33.963Z,9.13
2019-01-03T07:23:16.801Z,15.00
2019-01-03T07:26:07.564Z,12.03
2019-01-03T07:29:06.390Z,12.00
2019-01-03T07:31:51.882Z,12.57
2019-01-03T07:34:41.606Z,10.27
2019-01-03T07:37:35.138Z,12.47
2019-01-03T07:40:17.928Z,10.33
2019-01-03T07:43:11.830Z,7.53
2019-01-03T07:46:01.690Z,8.73
2019-01-03T07:49:04.804Z,10.50
2019-01-03T07:51:55.668Z,9.67
2019-01-03T07:54:45.327Z,5.73
2019-01-03T07:57:41.507Z,10.67
2019-01-03T08:00:31.166Z,14.40
2019-01-03T08:03:24.963Z,13.50
2019-01-03T08:06:12.271Z,10.57
2019-01-03T08:09:00.336Z,10.17
2019-01-03T08:11:51.038Z,12.47
2019-01-03T08:14:51.140Z,14.80
2019-01-03T08:17:59.966Z,15.13
2019-01-03T08:20:56.735Z,10.50
2019-01-03T08:23:46.702Z,12.40
2019-01-03T08:26:37.445Z,11.03
2019-01-03T08:29:28.190Z,7.40
2019-01-03T08:32:28.120Z,7.47
2019-01-03T08:35:23.758Z,9.27
2019-01-03T08:38:13.393Z,10.77
2019-01-03T08:41:19.632Z,9.40
2019-01-03T08:44:09.172Z,12.37
2019-01-03T08:46:58.789Z,14.47
2019-01-03T08:49:55.699Z,14.83
2019-01-03T08:53:01.804Z,8.93
2019-01-03T08:55:51.432Z,14.47
2019-01-03T08:58:48.463Z,8.83
2019-01-03T09:01:51.565Z,11.70
2019-01-03T09:04:41.356Z,9.37
2019-01-03T09:07:41.379Z,12.00
2019-01-03T09:10:32.118Z,7.80
2019-01-03T09:13:35.691Z,8.13
2019-01-03T09:16:26.426Z,8.87
2019-01-03T09:19:26.440Z,13.00
2019-01-03T09:22:15.894Z,9.53
2019-01-03T09:25:12.724Z,7.90
2019-01-03T09:28:06.493Z,9.87
2019-01-03T09:31:00.343Z,11.17
2019-01-03T09:33:51.071Z,13.00
2019-01-03T09:36:45.073Z,6.90
2019-01-03T09:39:48.066Z,10.80
2019-01-03T09:42:52.241Z,6.07
2019-01-03T09:45:24.022Z,5.57
2019-01-03T09:47:55.743Z,5.30
2019-01-03T09:50:27.437Z,4.77
2019-01-03T09:52:59.244Z,8.10
2019-01-03T09:55:30.940Z,6.70
2019-01-03T09:58:02.712Z,12.37
2019-01-03T10:00:34.537Z,13.80
2019-01-03T10:03:06.294Z,8.10
2019-01-03T10:05:38.080Z,13.03
2019-01-03T10:08:09.829Z,9.17
2019-01-03T10:10:41.637Z,4.90
2019-01-03T10:13:13.331Z,8.47
2019-01-03T10:15:45.140Z,9.23
2019-01-03T10:18:16.976Z,8.57
2019-01-03T10:20:48.797Z,3.77
2019-01-03T10:23:20.655Z,4.57
2019-01-03T10:25:54.121Z,6.13
2019-01-03T10:28:25.972Z,6.47
2019-01-03T10:31:08.111Z,2.53
2019-01-03T10:33:39.935Z,4.33
2019-01-03T10:36:11.675Z,8.73
2019-01-03T10:38:43.471Z,3.70
2019-01-03T10:41:15.208Z,5.30
2019-01-03T10:43:47.044Z,1.30
2019-01-03T10:46:18.862Z,8.13
2019-01-03T10:48:50.756Z,5.30
2019-01-03T10:51:22.604Z,2.40
2019-01-03T10:53:54.388Z,9.03
2019-01-03T10:56:26.082Z,1.73
2019-01-03T10:58:57.867Z,6.87
2019-01-03T11:01:29.714Z,3.07
2019-01-03T11:04:01.521Z,3.70
2019-01-03T11:06:33.279Z,5.83
2019-01-03T11:09:07.155Z,4.63
2019-01-03T11:11:38.968Z,2.33
2019-01-03T11:14:10.691Z,6.67
2019-01-03T11:16:42.526Z,1.80
2019-01-03T11:19:14.452Z,4.27
2019-01-03T11:21:46.389Z,3.80
2019-01-03T11:24:18.350Z,3.67
2019-01-03T11:26:50.296Z,2.17
2019-01-03T11:29:22.318Z,4.93
2019-01-03T11:31:54.283Z,1.80
2019-01-03T11:34:26.303Z,3.27
2019-01-03T11:36:58.286Z,3.60
2019-01-03T11:39:32.028Z,5.47
2019-01-03T11:42:20.760Z,3.50
2019-01-03T11:44:54.614Z,4.37
2019-01-03T11:47:26.998Z,2.87
2019-01-03T11:49:59.000Z,4.67
2019-01-03T11:52:31.083Z,1.93
2019-01-03T11:55:02.992Z,7.13
2019-01-03T11:57:34.990Z,3.33
2019-01-03T12:00:08.099Z,5.13
2019-01-03T12:03:31.771Z,4.73
2019-01-03T12:05:51.514Z,3.93
2019-01-03T12:08:24.651Z,3.90
2019-01-03T12:10:56.876Z,2.70
2019-01-03T12:13:28.881Z,4.87
2019-01-03T12:16:00.842Z,3.97
2019-01-03T12:18:32.874Z,4.17
2019-01-03T12:21:07.250Z,2.63
2019-01-03T12:23:39.249Z,1.53
2019-01-03T12:26:11.210Z,3.67
2019-01-03T12:28:43.431Z,3.23
2019-01-03T12:31:15.481Z,5.33
2019-01-03T12:33:49.822Z,3.77
2019-01-03T12:36:26.070Z,1.60
2019-01-03T12:38:58.126Z,3.07
2019-01-03T12:41:30.242Z,2.47
2019-01-03T12:44:02.184Z,4.47
2019-01-03T12:46:34.185Z,2.23
2019-01-03T12:49:06.176Z,7.90
2019-01-03T12:51:38.285Z,4.50
2019-01-03T12:54:12.399Z,8.90
2019-01-03T12:56:47.611Z,4.83
2019-01-03T12:59:21.601Z,5.37
2019-01-03T13:02:25.801Z,3.93
2019-01-03T13:05:00.684Z,7.10
2019-01-03T13:07:32.440Z,4.47
2019-01-03T13:10:04.255Z,9.90
2019-01-03T13:12:36.034Z,4.47
2019-01-03T13:15:08.609Z,5.80
2019-01-03T13:17:40.341Z,3.40
2019-01-03T13:20:12.028Z,2.20
2019-01-03T13:22:43.675Z,3.07
2019-01-03T13:25:15.362Z,4.73
2019-01-03T13:27:47.028Z,2.73
2019-01-03T13:30:18.678Z,5.90
2019-01-03T13:32:50.377Z,4.53
2019-01-03T13:35:22.043Z,2.27
2019-01-03T13:37:53.720Z,2.90
2019-01-03T13:40:25.438Z,5.97
2019-01-03T13:42:57.148Z,3.83
2019-01-03T13:45:28.849Z,4.57
2019-01-03T13:48:00.509Z,2.60
2019-01-03T13:50:32.321Z,4.53
2019-01-03T13:53:04.249Z,2.37
2019-01-03T13:55:35.977Z,4.70
2019-01-03T13:58:07.617Z,5.70
2019-01-03T14:00:39.365Z,6.70
2019-01-03T14:03:11.050Z,2.80
2019-01-03T14:05:42.731Z,2.20
2019-01-03T14:08:14.404Z,6.73
2019-01-03T14:10:46.154Z,8.27
2019-01-03T14:13:17.864Z,2.37
2019-01-03T14:15:49.568Z,4.10
2019-01-03T14:18:21.259Z,7.27
2019-01-03T14:20:54.153Z,5.33
2019-01-03T14:23:25.913Z,4.63
2019-01-03T14:25:57.590Z,1.83
2019-01-03T14:28:29.253Z,3.30
2019-01-03T14:31:00.929Z,1.23
2019-01-03T14:33:32.652Z,4.73
2019-01-03T14:36:04.315Z,1.47
2019-01-03T14:38:35.957Z,3.47
2019-01-03T14:41:07.712Z,6.00
2019-01-03T14:43:39.410Z,2.57
2019-01-03T14:46:11.096Z,2.50
2019-01-03T14:48:42.811Z,7.57
2019-01-03T14:51:14.590Z,4.07
2019-01-03T14:53:46.281Z,4.00
2019-01-03T14:56:17.972Z,6.63
2019-01-03T14:58:49.689Z,4.77
2019-01-03T15:01:21.367Z,2.73
2019-01-03T15:03:53.057Z,2.50
2019-01-03T15:06:24.747Z,2.13
2019-01-03T15:08:56.434Z,1.97
2019-01-03T15:11:28.219Z,0.77
2019-01-03T15:13:59.907Z,5.90
2019-01-03T15:16:31.627Z,3.60
2019-01-03T15:19:03.373Z,4.00
2019-01-03T15:21:35.029Z,5.47
2019-01-03T15:24:06.697Z,3.40
2019-01-03T15:26:38.355Z,2.67
2019-01-03T15:29:10.080Z,2.77
2019-01-03T15:31:41.755Z,2.17
2019-01-03T15:34:13.424Z,3.53
2019-01-03T15:36:45.101Z,4.00
2019-01-03T15:39:16.860Z,3.67
2019-01-03T15:41:48.548Z,10.70
2019-01-03T15:44:20.310Z,2.20
2019-01-03T15:46:52.074Z,5.17
2019-01-03T15:49:23.718Z,5.37
2019-01-03T15:51:55.451Z,4.50
2019-01-03T15:54:27.181Z,4.27
2019-01-03T15:56:58.905Z,4.40
2019-01-03T15:59:30.664Z,4.57
2019-01-03T16:02:02.314Z,4.90
2019-01-03T16:04:34.089Z,7.37
2019-01-03T16:07:05.744Z,6.03
2019-01-03T16:09:37.486Z,4.33
2019-01-03T16:12:09.137Z,6.17
2019-01-03T16:14:40.832Z,8.27
2019-01-03T16:17:12.478Z,9.93
2019-01-03T16:19:44.230Z,8.27
2019-01-03T16:22:15.982Z,16.03
2019-01-03T16:24:47.732Z,25.03
2019-01-03T16:27:19.411Z,21.77
2019-01-03T16:29:51.540Z,18.40
2019-01-03T16:32:23.310Z,20.43
2019-01-03T16:34:55.289Z,23.50
2019-01-03T16:37:26.981Z,22.93
2019-01-03T16:39:58.733Z,26.33
2019-01-03T16:42:42.537Z,19.50
2019-01-03T16:45:14.894Z,19.10
2019-01-03T16:47:46.619Z,19.13
2019-01-03T16:50:18.696Z,14.60
2019-01-03T16:52:50.410Z,17.23
2019-01-03T16:55:22.215Z,18.87
2019-01-03T16:57:54.000Z,14.80
2019-01-03T17:00:25.803Z,15.33
2019-01-03T17:02:57.515Z,9.87
2019-01-03T17:05:29.307Z,10.70
2019-01-03T17:08:01.159Z,8.37
2019-01-03T17:10:32.975Z,6.93
2019-01-03T17:13:04.726Z,10.43
2019-01-03T17:15:36.471Z,6.53
2019-01-03T17:18:09.114Z,11.90
2019-01-03T17:20:40.822Z,10.03
2019-01-03T17:23:12.512Z,10.47
2019-01-03T17:25:44.572Z,9.00
2019-01-03T17:28:16.232Z,7.80
2019-01-03T17:30:47.935Z,8.10
2019-01-03T17:33:19.678Z,14.57
2019-01-03T17:35:51.455Z,10.87
2019-01-03T17:38:23.235Z,10.73
2019-01-03T17:40:54.943Z,7.73
2019-01-03T17:43:26.621Z,11.13
2019-01-03T17:45:58.391Z,6.93
2019-01-03T17:48:30.093Z,9.77
2019-01-03T17:51:01.843Z,9.20
2019-01-03T17:53:33.649Z,7.63
2019-01-03T17:56:05.356Z,9.93
2019-01-03T17:58:37.092Z,12.97
2019-01-03T18:01:08.848Z,13.60
2019-01-03T18:03:41.094Z,10.93
2019-01-03T18:06:12.828Z,10.03
2019-01-03T18:08:44.536Z,8.57
2019-01-03T18:11:16.233Z,11.67
2019-01-03T18:13:48.039Z,10.80
2019-01-03T18:16:19.766Z,10.80
2019-01-03T18:18:51.472Z,9.23
2019-01-03T18:21:23.269Z,12.43
2019-01-03T18:23:54.977Z,9.30
2019-01-03T18:26:26.760Z,13.77
2019-01-03T18:28:58.497Z,8.77
2019-01-03T18:31:30.208Z,15.50
2019-01-03T18:34:02.005Z,13.90
2019-01-03T18:36:33.710Z,9.17
2019-01-03T18:39:06.093Z,9.07
2019-01-03T18:41:37.914Z,7.70
2019-01-03T18:44:09.992Z,8.33
2019-01-03T18:46:41.668Z,10.20
2019-01-03T18:49:15.011Z,14.93
2019-01-03T18:51:46.777Z,14.27
2019-01-03T18:54:18.487Z,11.13
2019-01-03T18:56:50.252Z,11.97
2019-01-03T18:59:21.979Z,18.70
2019-01-03T19:01:53.777Z,13.37
2019-01-03T19:04:25.477Z,13.63
2019-01-03T19:06:57.290Z,12.13
2019-01-03T19:09:29.041Z,13.83
2019-01-03T19:12:00.744Z,17.00
2019-01-03T19:14:32.457Z,12.90
2019-01-03T19:17:04.153Z,13.60
2019-01-03T19:19:35.917Z,19.20
2019-01-03T19:22:07.675Z,12.00
2019-01-03T19:24:39.436Z,15.80
2019-01-03T19:27:11.092Z,19.90
2019-01-03T19:29:42.803Z,13.20
2019-01-03T19:32:14.584Z,17.20
2019-01-03T19:34:46.436Z,15.47
2019-01-03T19:37:18.164Z,14.73
2019-01-03T19:39:49.918Z,15.33
2019-01-03T19:42:21.722Z,14.13
2019-01-03T19:44:53.555Z,8.90
2019-01-03T19:47:25.291Z,18.83
2019-01-03T19:49:57.069Z,14.20
2019-01-03T19:52:28.773Z,13.40
2019-01-03T19:55:00.565Z,12.23
2019-01-03T19:57:32.285Z,12.50
2019-01-03T20:00:04.083Z,13.03
2019-01-03T20:02:35.777Z,12.20
2019-01-03T20:05:08.009Z,15.13
2019-01-03T20:07:40.034Z,18.27
2019-01-03T20:10:12.656Z,20.10
2019-01-03T20:12:44.357Z,15.60
2019-01-03T20:15:16.277Z,17.27
2019-01-03T20:17:48.014Z,16.90
2019-01-03T20:20:19.897Z,14.13
2019-01-03T20:22:51.703Z,17.60
2019-01-03T20:25:23.584Z,23.90
2019-01-03T20:27:55.307Z,15.23
2019-01-03T20:30:27.080Z,14.00
2019-01-03T20:32:58.854Z,10.70
2019-01-03T20:35:31.498Z,11.27
2019-01-03T20:38:04.521Z,10.63
2019-01-03T20:40:36.183Z,10.07
2019-01-03T20:43:07.873Z,11.60
2019-01-03T20:45:39.546Z,9.53
2019-01-03T20:48:12.451Z,8.70
2019-01-03T20:50:44.141Z,11.33
2019-01-03T20:53:16.161Z,11.50
2019-01-03T20:55:47.923Z,12.60
2019-01-03T20:58:19.607Z,10.90
2019-01-03T21:00:51.257Z,13.13
2019-01-03T21:03:23.154Z,10.47
2019-01-03T21:05:54.925Z,11.93
2019-01-03T21:08:26.701Z,10.20
2019-01-03T21:10:58.455Z,13.07
2019-01-03T21:13:30.249Z,10.70
2019-01-03T21:16:01.998Z,10.13
2019-01-03T21:18:33.818Z,9.87
2019-01-03T21:21:05.798Z,7.77
2019-01-03T21:23:37.473Z,9.47
2019-01-03T21:26:09.266Z,14.50
2019-01-03T21:28:41.095Z,10.57
2019-01-03T21:31:12.804Z,12.67
2019-01-03T21:33:44.657Z,11.80
2019-01-03T21:36:16.666Z,13.03
2019-01-03T21:38:48.498Z,9.57
2019-01-03T21:41:20.297Z,12.70
2019-01-03T21:43:52.106Z,9.20
2019-01-03T21:46:25.480Z,9.30
2019-01-03T21:48:57.239Z,9.23
2019-01-03T21:51:30.282Z,9.10
2019-01-03T21:54:01.951Z,9.10
2019-01-03T21:56:33.678Z,11.73
2019-01-03T21:59:05.428Z,18.83
2019-01-03T22:01:37.182Z,9.77
2019-01-03T22:04:08.978Z,7.53
2019-01-03T22:06:40.828Z,7.87
2019-01-03T22:09:12.608Z,11.37
2019-01-03T22:11:44.319Z,6.30
2019-01-03T22:14:16.106Z,8.10
2019-01-03T22:16:47.882Z,11.03
2019-01-03T22:19:19.634Z,7.83
2019-01-03T22:21:51.472Z,6.37
2019-01-03T22:24:23.154Z,6.57
2019-01-03T22:26:54.823Z,7.93
2019-01-03T22:29:26.706Z,10.20
2019-01-03T22:31:58.495Z,13.10
2019-01-03T22:34:30.211Z,10.70
2019-01-03T22:37:02.071Z,8.37
2019-01-03T22:39:33.853Z,8.10
2019-01-03T22:42:05.510Z,8.43
2019-01-03T22:44:37.460Z,7.70
2019-01-03T22:47:09.352Z,8.17
2019-01-03T22:49:41.183Z,9.00
2019-01-03T22:52:12.974Z,9.30
2019-01-03T22:54:44.850Z,13.93
2019-01-03T22:57:16.694Z,11.03
2019-01-03T22:59:48.557Z,9.77
2019-01-03T23:02:20.535Z,8.03
2019-01-03T23:04:52.902Z,12.03
2019-01-03T23:07:24.733Z,6.40
2019-01-03T23:09:56.705Z,8.20
2019-01-03T23:12:28.740Z,10.33
2019-01-03T23:15:00.586Z,8.10
2019-01-03T23:17:32.485Z,8.40
2019-01-03T23:20:04.547Z,9.00
2019-01-03T23:22:36.229Z,9.27
2019-01-03T23:25:07.947Z,9.97
2019-01-03T23:27:39.851Z,6.93
2019-01-03T23:30:11.581Z,10.33
2019-01-03T23:32:43.346Z,9.23
2019-01-03T23:35:15.036Z,6.80
2019-01-03T23:37:46.716Z,9.30
2019-01-03T23:40:18.543Z,5.83
2019-01-03T23:42:50.311Z,6.63
2019-01-03T23:45:23.766Z,9.80
2019-01-03T23:47:57.062Z,9.50
2019-01-03T23:50:30.955Z,5.90
2019-01-03T23:53:02.636Z,6.30
2019-01-03T23:55:41.999Z,8.07
2019-01-03T23:58:13.752Z,6.87
